Time;durP1;ratioP1;P1;durP2;ratioP2;P2;SDS_P1;SDS_P2;PMS_P1;PMS_P2;Temp;Humidity;BMP_temperature;BMP_pressure;BME280_temperature;BME280_humidity;BME280_pressure;Samples;Min_cycle;Max_cycle;Signal;HPM_P1;HPM_P2
2023/12/22 00:03:04;;;;;;;2.30;2.03;;;;;;;12.27;42.86;98628.41;10458442;28;20781;-69
2023/12/22 00:08:06;;;;;;;3.60;2.13;;;;;;;13.71;40.81;98650.22;10469236;28;20744;-69
2023/12/22 00:13:08;;;;;;;3.90;2.27;;;;;;;13.25;40.70;98751.97;10443651;28;20257;-69
2023/12/22 00:18:09;;;;;;;3.50;2.40;;;;;;;14.54;39.59;98684.13;10459389;28;20489;-67
2023/12/22 00:23:11;;;;;;;5.63;2.67;;;;;;;14.12;39.97;98670.84;10460608;28;20232;-68
2023/12/22 00:28:13;;;;;;;6.50;2.70;;;;;;;14.55;39.18;98749.53;10461630;28;20224;-67
2023/12/22 00:33:14;;;;;;;4.20;2.47;;;;;;;13.55;40.10;98812.97;10451006;28;20310;-68
2023/12/22 00:38:16;;;;;;;3.07;2.00;;;;;;;13.85;39.70;98708.06;10452526;28;20232;-68
2023/12/22 00:43:18;;;;;;;3.63;2.03;;;;;;;13.50;39.00;98719.59;10469521;28;20644;-67
2023/12/22 00:48:19;;;;;;;2.10;2.00;;;;;;;12.29;39.55;98665.75;10472000;28;20243;-68
2023/12/22 00:53:21;;;;;;;2.40;2.20;;;;;;;12.43;39.29;98628.84;10462560;28;20273;-68
2023/12/22 00:58:23;;;;;;;2.43;2.30;;;;;;;13.54;37.88;98688.53;10456989;28;20246;-71
2023/12/22 01:03:24;;;;;;;3.23;2.30;;;;;;;14.44;37.77;98616.59;10454365;28;20298;-70
2023/12/22 01:08:26;;;;;;;2.00;1.90;;;;;;;12.43;39.22;98779.09;10450897;28;20243;-72
2023/12/22 01:13:28;;;;;;;2.03;1.80;;;;;;;15.07;37.77;98703.75;10435240;28;20240;-71
2023/12/22 01:18:30;;;;;;;2.77;2.50;;;;;;;13.66;39.56;98758.44;10454070;28;20714;-71
2023/12/22 01:23:31;;;;;;;5.20;2.40;;;;;;;14.56;38.87;98722.38;10460005;28;20235;-71
2023/12/22 01:28:36;;;;;;;3.63;2.47;;;;;;;13.75;39.25;98793.88;10441228;28;20313;-72
2023/12/22 01:33:38;;;;;;;2.77;2.60;;;;;;;12.20;40.98;98796.63;10462335;28;20744;-71
2023/12/22 01:38:40;;;;;;;2.23;1.90;;;;;;;12.68;41.06;98648.38;10443491;28;20231;-67
2023/12/22 01:43:42;;;;;;;3.77;3.07;;;;;;;13.18;39.89;98752.03;10462379;28;20215;-70
2023/12/22 01:48:43;;;;;;;4.90;2.17;;;;;;;13.47;39.64;98701.25;10424280;28;20585;-72
2023/12/22 01:53:46;;;;;;;4.37;2.50;;;;;;;14.26;38.98;98722.53;10449410;28;20222;-71
2023/12/22 01:58:47;;;;;;;4.53;2.17;;;;;;;13.01;41.16;98735.75;10453625;28;20204;-70
2023/12/22 02:03:53;;;;;;;6.60;2.30;;;;;;;12.89;40.81;98762.53;10443671;28;20240;-70
2023/12/22 02:08:57;;;;;;;4.50;2.97;;;;;;;14.56;39.76;98708.91;10439903;28;20232;-70
2023/12/22 02:13:59;;;;;;;3.60;2.30;;;;;;;13.85;39.81;98722.38;10450035;28;20238;-72
2023/12/22 02:19:22;;;;;;;4.07;2.60;;;;;;;13.33;40.60;98727.50;10431244;28;20308;-71
2023/12/22 02:24:25;;;;;;;3.40;2.43;;;;;;;14.78;38.99;98762.16;10450651;28;20244;-70
2023/12/22 02:29:30;;;;;;;5.03;2.93;;;;;;;15.40;38.12;98801.94;10445341;28;20266;-71
2023/12/22 02:34:37;;;;;;;3.53;2.70;;;;;;;15.25;38.81;98672.28;10453080;28;20251;-71
2023/12/22 02:39:39;;;;;;;5.57;2.83;;;;;;;14.92;38.47;98754.66;10453979;28;20246;-71
2023/12/22 02:44:41;;;;;;;2.50;2.30;;;;;;;12.55;41.11;98703.03;10454990;28;20266;-71
2023/12/22 02:49:42;;;;;;;3.63;2.50;;;;;;;12.05;40.63;98705.78;10436398;28;20247;-71
2023/12/22 02:54:44;;;;;;;3.53;2.10;;;;;;;11.65;41.62;98691.91;10450941;28;20649;-70
2023/12/22 02:59:46;;;;;;;5.00;2.33;;;;;;;12.65;40.98;98718.59;10444963;28;20310;-71
2023/12/22 03:04:47;;;;;;;2.20;2.00;;;;;;;13.71;39.95;98656.41;10457524;28;20235;-71
2023/12/22 03:09:49;;;;;;;2.63;2.43;;;;;;;11.85;42.22;98799.78;10445511;28;20298;-70
2023/12/22 03:14:51;;;;;;;6.27;2.47;;;;;;;13.01;40.85;98777.88;10458745;28;20261;-71
2023/12/22 03:19:53;;;;;;;3.93;2.40;;;;;;;13.79;40.33;98676.75;10426341;28;20315;-72
2023/12/22 03:24:54;;;;;;;2.93;2.43;;;;;;;13.80;40.67;98667.63;10461025;28;20238;-71
2023/12/22 03:29:56;;;;;;;8.23;3.57;;;;;;;13.74;40.36;98738.47;10457183;28;20232;-72
2023/12/22 03:34:57;;;;;;;6.77;2.90;;;;;;;13.41;41.63;98645.72;10412328;28;20233;-73
2023/12/22 03:39:59;;;;;;;5.33;2.63;;;;;;;13.18;41.65;98727.88;10409734;28;20312;-72
2023/12/22 03:45:01;;;;;;;3.73;2.70;;;;;;;13.32;41.59;98763.47;10415416;28;20240;-72
2023/12/22 03:50:03;;;;;;;8.07;2.93;;;;;;;12.50;41.91;98817.44;10424432;28;20232;-71
2023/12/22 03:55:05;;;;;;;4.57;2.77;;;;;;;12.57;42.47;98720.75;10402086;28;20704;-71
2023/12/22 04:00:07;;;;;;;3.57;2.70;;;;;;;12.97;43.48;98626.31;10409758;28;20235;-72
2023/12/22 04:05:12;;;;;;;8.27;2.80;;;;;;;11.84;43.48;98762.47;10420863;28;20324;-71
2023/12/22 04:10:17;;;;;;;4.70;2.50;;;;;;;13.90;41.61;98694.75;10440186;28;20233;-71
2023/12/22 04:15:19;;;;;;;5.70;3.30;;;;;;;13.65;41.49;98725.38;10414768;28;20277;-71
2023/12/22 04:20:21;;;;;;;5.37;2.83;;;;;;;13.92;40.84;98698.06;10392229;28;20609;-72
2023/12/22 04:25:24;;;;;;;5.00;2.90;;;;;;;13.68;42.15;98651.47;10412799;28;20232;-72
2023/12/22 04:30:27;;;;;;;4.93;2.73;;;;;;;13.54;41.04;98753.03;10424505;28;20289;-72
2023/12/22 04:35:32;;;;;;;4.90;3.07;;;;;;;14.88;40.07;98669.97;10411634;28;20239;-73
2023/12/22 04:40:34;;;;;;;7.23;2.70;;;;;;;13.81;41.63;98698.84;10396582;28;20622;-71
2023/12/22 04:45:36;;;;;;;10.17;3.77;;;;;;;14.14;40.32;98770.13;10394349;28;20244;-72
2023/12/22 04:50:37;;;;;;;10.07;3.70;;;;;;;13.64;40.62;98780.16;10405213;28;20509;-72
2023/12/22 04:55:39;;;;;;;6.50;3.50;;;;;;;14.77;39.03;98838.59;10406815;28;20235;-72
2023/12/22 05:00:41;;;;;;;7.73;3.57;;;;;;;14.69;39.69;98750.09;10432187;28;20235;-71
2023/12/22 05:05:43;;;;;;;11.47;3.73;;;;;;;14.10;40.18;98760.88;10435432;28;20281;-70
2023/12/22 05:10:44;;;;;;;6.17;2.97;;;;;;;14.05;40.73;98731.94;10398807;28;20224;-71
2023/12/22 05:15:46;;;;;;;8.03;3.00;;;;;;;14.08;40.35;98696.56;10409549;28;20237;-72
2023/12/22 05:20:47;;;;;;;6.77;3.43;;;;;;;14.48;39.42;98851.94;10408999;28;20239;-72
2023/12/22 05:25:49;;;;;;;7.90;3.37;;;;;;;14.97;39.48;98721.63;10409839;28;20227;-72
2023/12/22 05:30:51;;;;;;;9.73;3.40;;;;;;;13.93;39.73;98834.13;10410052;28;20849;-71
2023/12/22 05:35:53;;;;;;;8.10;2.90;;;;;;;14.24;39.15;98922.91;10413233;28;20240;-71
2023/12/22 05:40:54;;;;;;;7.83;3.47;;;;;;;12.44;41.65;98789.59;10395157;28;20256;-71
2023/12/22 05:45:56;;;;;;;10.40;3.60;;;;;;;15.11;38.34;98836.94;10390683;28;20264;-71
2023/12/22 05:50:58;;;;;;;4.97;3.20;;;;;;;13.76;40.40;98763.25;10408873;28;20715;-72
2023/12/22 05:56:00;;;;;;;8.60;3.67;;;;;;;12.88;40.02;98899.69;10404520;28;20332;-72
2023/12/22 06:01:01;;;;;;;9.13;3.30;;;;;;;12.40;41.56;98886.84;10409959;28;20247;-72
2023/12/22 06:06:03;;;;;;;7.63;2.90;;;;;;;13.50;40.12;98808.28;10419773;28;20243;-77
2023/12/22 06:11:06;;;;;;;6.10;3.20;;;;;;;14.39;39.44;98800.34;10404270;28;20237;-73
2023/12/22 06:16:15;;;;;;;10.27;3.67;;;;;;;14.52;39.80;98795.75;10406531;28;20240;-72
2023/12/22 06:21:16;;;;;;;7.13;3.40;;;;;;;14.14;39.90;98851.66;10434355;28;20319;-73
2023/12/22 06:26:18;;;;;;;11.90;4.53;;;;;;;13.23;41.56;98851.59;10408883;28;20641;-75
2023/12/22 06:31:21;;;;;;;8.23;3.77;;;;;;;13.65;41.66;98770.25;10403230;28;20822;-73
2023/12/22 06:36:25;;;;;;;10.43;4.10;;;;;;;14.63;41.33;98762.63;10418685;28;20229;-74
2023/12/22 06:41:27;;;;;;;8.10;3.13;;;;;;;13.18;43.01;98829.94;10407088;28;20748;-73
2023/12/22 06:46:30;;;;;;;9.83;4.00;;;;;;;14.51;40.91;98915.25;10405720;28;20233;-74
2023/12/22 06:51:35;;;;;;;12.20;6.00;;;;;;;13.47;42.66;98875.94;10413408;28;20491;-73
2023/12/22 06:56:39;;;;;;;11.03;5.00;;;;;;;15.03;41.31;98759.19;10405977;28;20680;-70
2023/12/22 07:01:41;;;;;;;10.63;3.70;;;;;;;16.49;39.23;98826.25;10418193;28;20814;-73
2023/12/22 07:06:44;;;;;;;10.10;4.33;;;;;;;15.69;40.76;98800.09;10412366;28;20270;-72
2023/12/22 07:11:46;;;;;;;13.70;4.10;;;;;;;14.45;41.93;98891.97;10410176;28;20243;-72
2023/12/22 07:16:47;;;;;;;10.77;3.77;;;;;;;14.48;42.15;98857.31;10413591;28;20859;-72
2023/12/22 07:21:49;;;;;;;11.50;4.57;;;;;;;13.57;43.50;98838.56;10424934;28;20238;-73
2023/12/22 07:26:54;;;;;;;8.63;4.40;;;;;;;13.10;44.07;98812.25;10423741;28;20224;-71
2023/12/22 07:31:57;;;;;;;11.73;4.40;;;;;;;12.57;44.81;98785.16;10416205;28;20236;-71
2023/12/22 07:37:01;;;;;;;8.47;3.80;;;;;;;12.41;44.63;98813.38;10418782;28;20592;-71
2023/12/22 07:42:08;;;;;;;11.37;4.60;;;;;;;13.35;44.13;98670.84;10426529;28;20305;-71
2023/12/22 07:47:10;;;;;;;13.40;4.27;;;;;;;13.38;43.50;98732.16;10422968;28;20319;-71
2023/12/22 07:52:12;;;;;;;16.03;5.03;;;;;;;13.25;43.35;98742.03;10418159;28;20286;-71
2023/12/22 07:57:14;;;;;;;10.00;3.70;;;;;;;12.43;43.75;98860.38;10417522;28;20264;-71
2023/12/22 08:02:15;;;;;;;9.57;4.40;;;;;;;13.76;41.83;98870.78;10422473;28;20286;-70
2023/12/22 08:07:17;;;;;;;10.47;3.83;;;;;;;12.49;43.44;98937.38;10402848;28;20807;-71
2023/12/22 08:12:19;;;;;;;11.87;4.40;;;;;;;13.98;42.05;98846.91;10408585;28;20580;-71
2023/12/22 08:17:21;;;;;;;9.87;4.10;;;;;;;13.82;42.13;98803.47;10419768;28;20312;-71
2023/12/22 08:22:23;;;;;;;9.47;3.93;;;;;;;13.97;41.14;98971.66;10417156;28;20264;-71
2023/12/22 08:27:31;;;;;;;16.67;4.60;;;;;;;14.63;40.30;98921.47;10419761;28;20233;-71
2023/12/22 08:32:32;;;;;;;9.77;4.27;;;;;;;14.32;40.83;98920.69;10415501;28;20261;-71
2023/12/22 08:37:34;;;;;;;11.23;5.10;;;;;;;14.31;40.63;98902.13;10421280;28;20240;-71
2023/12/22 08:42:36;;;;;;;14.20;4.30;;;;;;;14.44;40.47;98947.66;10421744;28;20811;-71
2023/12/22 08:47:38;;;;;;;11.63;4.60;;;;;;;14.80;39.71;98937.78;10417700;28;20234;-70
2023/12/22 08:52:40;;;;;;;16.77;4.40;;;;;;;13.45;41.02;98983.66;10414500;28;20232;-70
2023/12/22 08:57:41;;;;;;;11.67;4.83;;;;;;;14.56;40.04;98909.97;10414268;28;20776;-69
2023/12/22 09:02:57;;;;;;;13.30;4.53;;;;;;;14.87;39.40;98957.34;10409734;28;20258;-69
2023/12/22 09:07:58;;;;;;;6.93;3.53;;;;;;;13.42;40.80;99062.00;10415878;28;20722;-68
2023/12/22 09:13:00;;;;;;;11.37;4.83;;;;;;;13.40;42.10;98883.25;10420877;28;20244;-70
2023/12/22 09:18:02;;;;;;;14.63;4.50;;;;;;;13.24;41.51;98971.41;10411546;28;20311;-71
2023/12/22 09:23:07;;;;;;;12.77;4.67;;;;;;;13.24;41.86;98872.00;10413673;28;20779;-69
2023/12/22 09:28:10;;;;;;;12.33;4.07;;;;;;;12.71;42.49;98921.72;10398539;28;20279;-70
2023/12/22 09:33:13;;;;;;;9.87;4.07;;;;;;;14.15;41.06;98822.88;10410459;28;20228;-70
2023/12/22 09:38:15;;;;;;;9.50;4.30;;;;;;;13.07;41.89;98905.88;10412952;28;20718;-70
2023/12/22 09:43:19;;;;;;;13.63;4.47;;;;;;;13.00;42.30;98956.97;10407609;28;20281;-70
2023/12/22 09:48:27;;;;;;;9.70;3.93;;;;;;;13.81;41.45;98852.09;10405011;28;20667;-70
2023/12/22 09:53:31;;;;;;;11.30;4.60;;;;;;;14.35;40.91;98857.53;10418466;28;20723;-69
2023/12/22 09:58:35;;;;;;;8.07;3.63;;;;;;;13.62;42.27;98854.84;10421722;28;20224;-70
2023/12/22 10:03:38;;;;;;;10.33;4.30;;;;;;;13.86;42.46;98846.88;10416839;28;20323;-69
2023/12/22 10:08:41;;;;;;;10.70;4.30;;;;;;;14.97;41.48;98843.66;10415550;28;20323;-69
2023/12/22 10:13:44;;;;;;;13.17;4.87;;;;;;;13.29;44.02;98858.78;10417982;28;20205;-70
2023/12/22 10:18:46;;;;;;;8.00;4.10;;;;;;;14.31;42.91;98829.47;10412949;28;20215;-68
2023/12/22 10:23:48;;;;;;;11.97;4.27;;;;;;;15.02;40.97;98965.00;10419777;28;20235;-68
2023/12/22 10:28:50;;;;;;;12.07;4.47;;;;;;;14.27;42.70;98915.19;10419231;28;20654;-69
2023/12/22 10:33:53;;;;;;;11.00;4.20;;;;;;;14.75;42.54;98833.44;10423439;28;20227;-69
2023/12/22 10:38:55;;;;;;;12.93;3.83;;;;;;;14.32;43.42;98874.94;10413235;28;20200;-68
2023/12/22 10:43:58;;;;;;;7.97;3.97;;;;;;;15.05;42.32;98804.72;10412626;28;20764;-67
2023/12/22 10:49:00;;;;;;;11.37;4.17;;;;;;;15.19;41.83;98827.66;10414571;28;20324;-67
2023/12/22 10:54:05;;;;;;;10.23;4.53;;;;;;;15.56;40.90;98907.44;10414932;28;20616;-67
2023/12/22 10:59:08;;;;;;;12.80;4.23;;;;;;;15.24;41.77;98867.38;10412640;28;20240;-68
2023/12/22 11:06:15;;;;;;;6.53;3.83;;;;;;;10.61;51.66;98633.13;10517388;27;20323;-69
2023/12/22 11:11:29;;;;;;;4.50;3.30;;;;;;;11.00;50.76;98664.28;10447265;28;20239;-68
2023/12/22 11:16:35;;;;;;;7.30;3.47;;;;;;;10.63;50.23;98794.25;10484277;28;20649;-68
2023/12/22 11:21:39;;;;;;;5.40;3.00;;;;;;;11.07;51.08;98640.16;10513402;28;20312;-68
2023/12/22 11:26:44;;;;;;;6.07;2.90;;;;;;;10.67;50.90;98737.44;10510213;28;20242;-67
2023/12/22 11:31:49;;;;;;;6.50;3.37;;;;;;;10.80;51.25;98695.66;10512069;28;20276;-67
2023/12/22 11:36:53;;;;;;;5.87;3.47;;;;;;;10.78;50.67;98804.75;10506857;28;20235;-69
2023/12/22 11:41:56;;;;;;;7.23;3.13;;;;;;;12.25;49.17;98619.78;10516029;28;20258;-75
2023/12/22 11:47:08;;;;;;;4.13;3.00;;;;;;;11.57;49.85;98693.75;10509359;28;20223;-74
2023/12/22 11:52:11;;;;;;;6.93;3.20;;;;;;;12.37;49.52;98603.75;10510737;28;20222;-67
2023/12/22 11:57:27;;;;;;;6.23;3.37;;;;;;;12.34;49.63;98602.31;10510145;28;20262;-67
2023/12/22 12:02:30;;;;;;;6.97;3.77;;;;;;;11.89;49.75;98679.53;10510830;28;20237;-68
2023/12/22 12:07:51;;;;;;;4.47;3.27;;;;;;;11.93;50.71;98587.72;10510134;28;20239;-68
2023/12/22 12:13:08;;;;;;;6.63;3.07;;;;;;;11.51;51.28;98602.75;10510839;28;20736;-69
2023/12/22 12:18:09;;;;;;;4.77;3.50;;;;;;;12.62;49.19;98625.13;10481267;28;20318;-79
2023/12/22 12:23:11;;;;;;;4.50;3.47;;;;;;;11.67;50.55;98681.78;10482597;28;20230;-76
2023/12/22 12:28:14;;;;;;;2.77;2.57;;;;;;;12.03;50.24;98635.47;10482829;28;20350;-70
2023/12/22 12:33:16;;;;;;;2.70;2.50;;;;;;;12.90;50.01;98513.66;10446789;28;20290;-69
2023/12/22 12:38:22;;;;;;;3.00;2.70;;;;;;;12.77;49.46;98631.94;10439198;28;20244;-75
2023/12/22 12:43:24;;;;;;;3.20;3.00;;;;;;;12.21;50.15;98637.34;10472976;28;20238;-70
2023/12/22 12:48:26;;;;;;;2.83;2.63;;;;;;;12.49;49.81;98644.91;10440922;28;20242;-70
2023/12/22 12:53:33;;;;;;;2.60;2.40;;;;;;;12.47;50.45;98636.25;10441474;28;20404;-69
2023/12/22 12:58:35;;;;;;;2.90;2.63;;;;;;;12.61;49.67;98700.50;10438038;28;20604;-70
2023/12/22 13:03:54;;;;;;;2.70;2.50;;;;;;;12.96;49.86;98603.19;10442101;28;20276;-69
2023/12/22 13:08:56;;;;;;;2.63;2.30;;;;;;;12.84;50.01;98641.56;10478925;28;20223;-71
2023/12/22 13:13:58;;;;;;;2.40;2.30;;;;;;;12.87;50.21;98618.81;10479851;28;20266;-68
2023/12/22 13:19:01;;;;;;;2.60;2.40;;;;;;;13.06;49.51;98670.63;10477018;28;20215;-71
2023/12/22 13:24:12;;;;;;;2.83;2.63;;;;;;;12.83;49.73;98685.56;10420053;28;20715;-70
2023/12/22 13:29:14;;;;;;;2.77;2.57;;;;;;;13.30;50.01;98631.22;10477766;28;20274;-70
2023/12/22 13:34:17;;;;;;;2.87;2.67;;;;;;;11.75;51.34;98762.72;10482869;28;20292;-70
2023/12/22 13:39:19;;;;;;;2.97;2.77;;;;;;;13.13;50.01;98662.44;10478890;28;20741;-70
2023/12/22 13:44:21;;;;;;;11.00;6.87;;;;;;;12.70;48.71;98861.03;10477075;28;20742;-69
2023/12/22 13:49:22;;;;;;;11.87;6.67;;;;;;;13.26;49.22;98735.63;10476123;28;20238;-70
2023/12/22 13:54:32;;;;;;;4.13;3.30;;;;;;;13.80;48.75;98660.41;10480862;28;20342;-71
2023/12/22 13:59:34;;;;;;;2.70;2.50;;;;;;;13.31;49.03;98742.19;10479839;28;20227;-71
2023/12/22 14:04:35;;;;;;;2.30;2.10;;;;;;;13.54;48.91;98711.91;10471134;28;20259;-71
2023/12/22 14:09:38;;;;;;;2.93;2.23;;;;;;;13.79;48.57;98693.69;10478714;28;20239;-70
2023/12/22 14:14:40;;;;;;;2.57;2.37;;;;;;;14.47;47.20;98710.31;10476735;28;20721;-70
2023/12/22 14:19:41;;;;;;;2.60;2.50;;;;;;;13.89;48.19;98722.72;10481115;28;20246;-70
2023/12/22 14:24:43;;;;;;;2.50;2.40;;;;;;;13.80;47.76;98788.63;10478219;28;20745;-71
2023/12/22 14:29:45;;;;;;;2.40;2.20;;;;;;;13.15;49.27;98789.28;10475964;28;20231;-70
2023/12/22 14:34:47;;;;;;;2.50;2.30;;;;;;;13.08;49.20;98770.56;10476006;28;20231;-69
2023/12/22 14:39:49;;;;;;;3.43;2.53;;;;;;;13.79;47.65;98828.13;10479342;28;20444;-70
2023/12/22 14:44:51;;;;;;;2.27;2.17;;;;;;;15.05;45.91;98800.19;10476226;28;20881;-70
2023/12/22 14:49:52;;;;;;;2.90;2.70;;;;;;;14.77;46.75;98765.88;10479168;28;20788;-70
2023/12/22 14:54:54;;;;;;;2.37;2.20;;;;;;;14.52;46.77;98793.88;10477473;28;20533;-69
2023/12/22 14:59:56;;;;;;;2.70;2.50;;;;;;;14.65;46.84;98773.97;10474975;28;20226;-69
2023/12/22 15:04:58;;;;;;;2.33;2.13;;;;;;;14.08;47.12;98797.97;10474965;28;20263;-69
2023/12/22 15:10:05;;;;;;;2.03;1.93;;;;;;;13.20;47.58;98903.06;10475550;28;20733;-69
2023/12/22 15:15:07;;;;;;;2.40;2.20;;;;;;;13.45;48.38;98798.22;10465653;28;20293;-69
2023/12/22 15:20:09;;;;;;;2.43;2.30;;;;;;;14.35;46.40;98849.47;10475180;28;20231;-70
2023/12/22 15:25:13;;;;;;;2.60;2.40;;;;;;;12.96;48.57;98853.75;10473608;28;20319;-70
2023/12/22 15:30:15;;;;;;;3.30;2.90;;;;;;;12.52;48.79;98923.53;10475822;28;20326;-70
2023/12/22 15:35:16;;;;;;;2.60;2.40;;;;;;;13.95;47.02;98841.97;10473312;28;20665;-70
2023/12/22 15:40:19;;;;;;;2.23;2.07;;;;;;;14.06;47.47;98829.63;10475352;28;20454;-68
2023/12/22 15:45:21;;;;;;;2.57;2.37;;;;;;;14.29;46.47;98918.50;10475988;28;20365;-69
2023/12/22 15:50:22;;;;;;;2.53;2.33;;;;;;;15.13;45.97;98813.28;10480596;28;20235;-69
2023/12/22 15:55:24;;;;;;;3.60;3.30;;;;;;;13.55;47.52;98941.97;10485186;28;20227;-69
2023/12/22 16:00:27;;;;;;;3.20;2.90;;;;;;;14.45;46.51;98913.50;10486592;28;20258;-68
2023/12/22 16:05:29;;;;;;;4.00;2.70;;;;;;;13.40;47.97;98918.19;10480998;28;20742;-67
2023/12/22 16:10:30;;;;;;;2.80;2.60;;;;;;;13.57;47.74;98964.91;10487343;28;20815;-68
2023/12/22 16:15:32;;;;;;;2.57;2.30;;;;;;;14.12;46.60;98947.94;10482570;28;20243;-69
2023/12/22 16:20:34;;;;;;;2.20;2.10;;;;;;;13.94;46.47;98997.16;10483538;28;20647;-69
2023/12/22 16:25:36;;;;;;;2.20;2.10;;;;;;;14.29;46.44;98955.31;10484640;28;20231;-75
2023/12/22 16:30:38;;;;;;;2.30;2.17;;;;;;;15.02;45.12;98991.94;10483728;28;20285;-69
2023/12/22 16:35:43;;;;;;;2.60;2.40;;;;;;;14.87;45.65;98956.53;10481387;28;20239;-75
2023/12/22 16:40:45;;;;;;;2.40;2.20;;;;;;;14.71;45.82;98993.00;10483592;28;20231;-73
2023/12/22 16:45:46;;;;;;;2.90;2.70;;;;;;;14.75;45.73;98984.25;10480832;28;20238;-74
2023/12/22 16:50:48;;;;;;;4.00;3.30;;;;;;;14.50;46.12;98991.69;10478237;28;20630;-73
2023/12/22 16:55:50;;;;;;;2.70;2.50;;;;;;;13.60;47.43;98961.78;10481209;28;20259;-73
2023/12/22 17:00:52;;;;;;;2.77;2.57;;;;;;;14.19;47.46;98884.06;10480671;28;20603;-75
2023/12/22 17:06:13;;;;;;;2.47;2.27;;;;;;;12.61;49.52;98993.03;10477249;28;20289;-70
2023/12/22 17:11:15;;;;;;;3.40;2.97;;;;;;;13.58;47.45;99016.78;10480951;28;20280;-74
2023/12/22 17:16:17;;;;;;;2.00;1.90;;;;;;;14.67;46.47;98905.69;10478001;28;20227;-73
2023/12/22 17:21:19;;;;;;;3.17;2.37;;;;;;;14.27;46.98;98917.88;10477552;28;20258;-68
2023/12/22 17:26:21;;;;;;;3.23;2.93;;;;;;;13.85;47.13;99020.84;10478677;28;20431;-69
2023/12/22 17:31:23;;;;;;;3.60;2.67;;;;;;;13.54;47.22;99013.72;10479906;28;20235;-67
2023/12/22 17:36:25;;;;;;;3.10;2.20;;;;;;;13.44;47.66;99000.00;10478458;28;20318;-67
2023/12/22 17:41:27;;;;;;;3.50;2.73;;;;;;;13.89;46.99;98991.63;10481187;28;20236;-65
2023/12/22 17:46:28;;;;;;;3.57;2.90;;;;;;;13.21;48.33;99000.59;10454692;28;20625;-65
2023/12/22 17:51:31;;;;;;;2.90;2.70;;;;;;;13.79;47.07;98999.41;10461026;28;20334;-65
2023/12/22 17:56:33;;;;;;;2.50;2.30;;;;;;;13.25;48.54;98965.00;10468290;28;20235;-65
2023/12/22 18:01:40;;;;;;;2.50;2.30;;;;;;;13.78;46.91;99035.41;10468275;28;20242;-67
2023/12/22 18:06:43;;;;;;;2.73;2.30;;;;;;;13.20;47.92;99015.06;10459394;28;20628;-66
2023/12/22 18:11:45;;;;;;;2.60;2.50;;;;;;;13.84;46.78;99031.81;10472462;28;20227;-67
2023/12/22 18:16:47;;;;;;;2.70;2.50;;;;;;;13.62;47.46;98959.69;10479625;28;20261;-67
2023/12/22 18:21:49;;;;;;;5.37;3.70;;;;;;;14.98;45.20;98955.72;10474102;28;20408;-70
2023/12/22 18:26:50;;;;;;;3.63;3.30;;;;;;;13.67;47.34;99064.66;10478205;28;20234;-68
2023/12/22 18:31:55;;;;;;;3.10;2.90;;;;;;;14.68;45.61;99041.97;10471998;28;20544;-66
2023/12/22 18:36:57;;;;;;;2.83;2.40;;;;;;;13.99;46.56;99059.16;10471562;28;20258;-66
2023/12/22 18:41:59;;;;;;;2.57;2.37;;;;;;;14.35;46.09;99021.69;10474914;28;20318;-66
2023/12/22 18:47:01;;;;;;;5.20;2.60;;;;;;;13.19;47.56;99153.94;10471516;28;20231;-66
2023/12/22 18:52:05;;;;;;;5.43;3.37;;;;;;;13.81;46.89;99075.28;10477116;28;20238;-66
2023/12/22 18:57:06;;;;;;;3.80;2.70;;;;;;;13.58;47.81;99014.09;10472926;28;20246;-66
2023/12/22 19:02:08;;;;;;;2.70;2.50;;;;;;;13.56;46.96;99078.84;10475370;28;20542;-67
2023/12/22 19:07:30;;;;;;;3.10;2.70;;;;;;;14.62;45.68;99008.69;10441533;28;20235;-67
2023/12/22 19:12:31;;;;;;;4.73;2.67;;;;;;;12.67;47.79;99178.19;10434773;28;20239;-67
2023/12/22 19:17:36;;;;;;;4.33;2.67;;;;;;;14.34;46.68;99042.41;10425142;28;20240;-66
2023/12/22 19:22:38;;;;;;;3.20;2.90;;;;;;;15.01;44.63;99108.00;10434123;28;20228;-66
2023/12/22 19:27:44;;;;;;;3.30;2.77;;;;;;;13.86;46.45;99139.97;10440347;28;20730;-66
2023/12/22 19:32:46;;;;;;;4.37;3.00;;;;;;;13.52;47.32;99109.09;10441800;28;20224;-66
2023/12/22 19:37:47;;;;;;;4.60;2.60;;;;;;;13.75;46.95;99087.78;10439804;28;20232;-66
2023/12/22 19:42:49;;;;;;;5.23;3.00;;;;;;;14.29;45.35;99178.69;10442512;28;20282;-66
2023/12/22 19:47:51;;;;;;;4.70;2.87;;;;;;;14.42;45.45;99142.72;10439427;28;20235;-66
2023/12/22 19:52:54;;;;;;;3.97;2.63;;;;;;;13.46;46.96;99160.00;10439113;28;20564;-66
2023/12/22 19:57:56;;;;;;;5.40;2.63;;;;;;;12.81;47.69;99200.44;10442636;28;20603;-66
2023/12/22 20:02:57;;;;;;;5.60;2.90;;;;;;;13.63;45.58;99219.41;10442037;28;20235;-67
2023/12/22 20:07:59;;;;;;;2.70;2.43;;;;;;;12.82;47.31;99144.88;10439161;28;20312;-66
2023/12/22 20:13:01;;;;;;;4.43;2.70;;;;;;;13.46;46.91;99100.03;10427569;28;20592;-77
2023/12/22 20:18:04;;;;;;;5.07;2.77;;;;;;;13.79;46.77;99088.16;10443471;28;20259;-73
2023/12/22 20:23:06;;;;;;;5.57;2.63;;;;;;;13.47;46.39;99187.69;10442565;28;20242;-71
2023/12/22 20:28:09;;;;;;;4.57;2.70;;;;;;;13.97;45.95;99193.06;10437194;28;20535;-73
2023/12/22 20:33:12;;;;;;;5.33;2.70;;;;;;;14.88;43.66;99243.69;10441704;28;20315;-75
2023/12/22 20:38:14;;;;;;;3.97;2.40;;;;;;;14.65;44.36;99226.31;10440114;28;20478;-72
2023/12/22 20:43:16;;;;;;;5.63;2.60;;;;;;;14.31;45.06;99193.56;10439088;28;20718;-72
2023/12/22 20:48:18;;;;;;;4.00;2.47;;;;;;;12.82;47.39;99193.19;10437927;28;20321;-72
2023/12/22 20:53:20;;;;;;;5.90;2.67;;;;;;;14.08;45.94;99156.56;10438170;28;20217;-73
2023/12/22 20:58:21;;;;;;;3.93;2.70;;;;;;;13.60;46.24;99246.72;10441502;28;20255;-72
2023/12/22 21:03:23;;;;;;;8.37;2.80;;;;;;;13.13;47.05;99219.28;10434980;28;20240;-72
2023/12/22 21:08:25;;;;;;;4.97;2.87;;;;;;;12.01;48.05;99246.19;10436822;28;20737;-72
2023/12/22 21:13:27;;;;;;;5.40;2.97;;;;;;;13.08;46.18;99289.75;10437247;28;20239;-74
2023/12/22 21:18:29;;;;;;;3.73;2.80;;;;;;;13.55;45.81;99248.41;10437393;28;20252;-73
2023/12/22 21:23:34;;;;;;;4.93;3.10;;;;;;;15.03;44.10;99192.94;10437219;28;20752;-72
2023/12/22 21:28:38;;;;;;;5.80;3.27;;;;;;;13.57;46.12;99241.78;10438812;28;20445;-71
2023/12/22 21:33:40;;;;;;;5.47;2.90;;;;;;;13.80;45.68;99197.34;10439847;28;20259;-72
2023/12/22 21:38:41;;;;;;;4.07;2.80;;;;;;;12.89;46.56;99294.16;10476218;28;20227;-66
2023/12/22 21:43:43;;;;;;;4.10;3.03;;;;;;;13.70;45.41;99240.03;10423312;28;20714;-70
2023/12/22 21:48:45;;;;;;;4.93;2.90;;;;;;;14.00;44.95;99262.56;10422171;28;20212;-71
2023/12/22 21:53:47;;;;;;;4.77;2.80;;;;;;;13.60;45.87;99225.22;10423678;28;20209;-70
2023/12/22 21:58:48;;;;;;;5.40;2.63;;;;;;;14.58;44.67;99193.28;10420659;28;20223;-71
2023/12/22 22:03:50;;;;;;;9.40;3.00;;;;;;;13.62;45.09;99345.97;10447152;28;20788;-72
2023/12/22 22:08:52;;;;;;;6.10;2.80;;;;;;;14.28;44.82;99280.13;10461477;28;20628;-71
2023/12/22 22:13:54;;;;;;;4.63;2.80;;;;;;;13.48;46.32;99280.72;10458026;28;20318;-69
2023/12/22 22:18:55;;;;;;;5.63;2.90;;;;;;;14.11;45.27;99308.66;10447488;28;21034;-69
2023/12/22 22:23:57;;;;;;;5.50;3.13;;;;;;;15.11;44.21;99219.53;10449665;28;20223;-69
2023/12/22 22:29:00;;;;;;;4.83;2.60;;;;;;;15.10;43.37;99287.97;10454700;28;20252;-70
2023/12/22 22:34:02;;;;;;;6.93;3.40;;;;;;;13.41;44.83;99430.41;10440746;28;20246;-70
2023/12/22 22:39:05;;;;;;;12.00;2.73;;;;;;;13.39;45.26;99374.19;10433039;28;20259;-69
2023/12/22 22:44:08;;;;;;;4.63;2.73;;;;;;;13.66;45.27;99296.09;10433904;28;20267;-70
2023/12/22 22:49:13;;;;;;;5.33;2.87;;;;;;;14.27;44.05;99374.53;10432519;28;20315;-69
2023/12/22 22:54:15;;;;;;;4.07;2.40;;;;;;;14.83;44.10;99260.53;10440266;28;20298;-71
2023/12/22 22:59:17;;;;;;;6.53;3.30;;;;;;;13.35;44.85;99475.09;10514266;28;20230;-68
2023/12/22 23:04:19;;;;;;;3.20;2.37;;;;;;;13.52;45.29;99351.00;10518311;28;20242;-74
2023/12/22 23:09:20;;;;;;;7.33;3.00;;;;;;;12.68;46.25;99397.25;10462709;28;20227;-69
2023/12/22 23:14:22;;;;;;;6.20;2.87;;;;;;;13.75;45.21;99305.56;10481901;28;20675;-65
2023/12/22 23:19:24;;;;;;;5.13;3.17;;;;;;;12.83;45.57;99455.28;10531853;28;20854;-66
2023/12/22 23:24:25;;;;;;;5.90;2.87;;;;;;;13.20;45.89;99337.47;10492577;28;20621;-65
2023/12/22 23:29:27;;;;;;;5.83;3.00;;;;;;;13.32;45.96;99308.09;10492342;28;20250;-64